createdAt,value
2023-02-19T00:01:07.390Z,1024.11
2023-02-19T00:03:34.358Z,1024.09
2023-02-19T00:06:02.004Z,1023.97
2023-02-19T00:08:29.951Z,1024.00
2023-02-19T00:11:00.776Z,1024.14
2023-02-19T00:13:27.587Z,1024.04
2023-02-19T00:15:55.813Z,1024.07
2023-02-19T00:18:23.370Z,1024.18
2023-02-19T00:20:50.171Z,1024.14
2023-02-19T00:23:16.911Z,1024.10
2023-02-19T00:25:43.748Z,1024.22
2023-02-19T00:28:10.482Z,1024.19
2023-02-19T00:30:37.327Z,1024.14
2023-02-19T00:33:05.469Z,1024.03
2023-02-19T00:35:33.924Z,1024.21
2023-02-19T00:38:00.756Z,1024.15
2023-02-19T00:40:27.614Z,1024.22
2023-02-19T00:42:54.352Z,1024.21
2023-02-19T00:45:21.203Z,1024.30
2023-02-19T00:47:48.008Z,1024.29
2023-02-19T00:50:16.309Z,1024.32
2023-02-19T00:52:43.040Z,1024.25
2023-02-19T00:55:09.870Z,1024.25
2023-02-19T00:57:36.720Z,1024.29
2023-02-19T01:00:04.293Z,1024.23
2023-02-19T01:02:31.078Z,1024.22
2023-02-19T01:04:57.858Z,1024.10
2023-02-19T01:07:26.019Z,1024.02
2023-02-19T01:09:52.834Z,1023.93
2023-02-19T01:12:19.551Z,1024.05
2023-02-19T01:14:46.295Z,1024.06
2023-02-19T01:17:13.081Z,1023.97
2023-02-19T01:19:39.784Z,1024.06
2023-02-19T01:22:06.513Z,1023.97
2023-02-19T01:24:35.756Z,1023.94
2023-02-19T01:27:02.592Z,1024.02
2023-02-19T01:29:29.438Z,1023.92
2023-02-19T01:31:56.282Z,1023.88
2023-02-19T01:34:23.261Z,1023.83
2023-02-19T01:36:50.020Z,1023.96
2023-02-19T01:39:16.738Z,1024.05
2023-02-19T01:41:45.260Z,1023.99
2023-02-19T01:44:45.124Z,1023.90
2023-02-19T01:47:12.408Z,1023.85
2023-02-19T01:49:44.773Z,1023.88
2023-02-19T01:52:14.863Z,1023.82
2023-02-19T01:54:44.108Z,1023.95
2023-02-19T01:57:17.064Z,1023.81
2023-02-19T01:59:44.317Z,1023.71
2023-02-19T02:02:11.768Z,1023.74
2023-02-19T02:04:38.865Z,1023.69
2023-02-19T02:07:06.789Z,1023.65
2023-02-19T02:09:36.352Z,1023.77
2023-02-19T02:12:03.384Z,1024.02
2023-02-19T02:14:36.417Z,1024.05
2023-02-19T02:17:14.771Z,1023.90
2023-02-19T02:20:02.061Z,1023.88
2023-02-19T02:22:32.662Z,1023.95
2023-02-19T02:25:36.605Z,1024.05
2023-02-19T02:28:21.562Z,1024.10
2023-02-19T02:30:53.796Z,1024.07
2023-02-19T02:33:28.450Z,1023.93
2023-02-19T02:35:59.306Z,1023.89
2023-02-19T02:38:29.499Z,1023.86
2023-02-19T02:40:57.225Z,1023.78
2023-02-19T02:43:24.422Z,1023.86
2023-02-19T02:45:52.919Z,1023.79
2023-02-19T02:48:30.198Z,1023.72
2023-02-19T02:51:02.480Z,1023.73
2023-02-19T02:53:33.788Z,1023.83
2023-02-19T02:56:01.670Z,1023.68
2023-02-19T02:58:29.516Z,1023.79
2023-02-19T03:01:01.317Z,1023.89
2023-02-19T03:03:31.119Z,1023.86
2023-02-19T03:06:03.114Z,1023.79
2023-02-19T03:08:36.778Z,1023.64
2023-02-19T03:11:07.284Z,1023.62
2023-02-19T03:13:37.740Z,1023.61
2023-02-19T03:16:10.815Z,1023.52
2023-02-19T03:18:41.338Z,1023.59
2023-02-19T03:21:10.007Z,1023.51
2023-02-19T03:23:38.071Z,1023.46
2023-02-19T03:26:05.620Z,1023.47
2023-02-19T03:28:35.292Z,1023.37
2023-02-19T03:31:02.351Z,1023.37
2023-02-19T03:33:30.719Z,1023.38
2023-02-19T03:36:00.768Z,1023.49
2023-02-19T03:38:36.686Z,1023.48
2023-02-19T03:41:10.625Z,1023.45
2023-02-19T03:43:41.583Z,1023.41
2023-02-19T03:46:13.299Z,1023.52
2023-02-19T03:48:48.630Z,1023.55
2023-02-19T03:51:26.785Z,1023.51
2023-02-19T03:53:59.589Z,1023.51
2023-02-19T03:56:32.110Z,1023.59
2023-02-19T03:59:03.992Z,1023.61
2023-02-19T04:01:39.390Z,1023.44
2023-02-19T04:04:13.441Z,1023.48
2023-02-19T04:06:42.690Z,1023.53
2023-02-19T04:09:12.932Z,1023.55
2023-02-19T04:11:40.084Z,1023.48
2023-02-19T04:14:11.346Z,1023.47
2023-02-19T04:16:41.967Z,1023.57
2023-02-19T04:19:12.426Z,1023.45
2023-02-19T04:21:40.651Z,1023.39
2023-02-19T04:24:12.705Z,1023.51
2023-02-19T04:26:41.205Z,1023.41
2023-02-19T04:29:08.080Z,1023.47
2023-02-19T04:31:36.329Z,1023.42
2023-02-19T04:34:03.873Z,1023.30
2023-02-19T04:36:32.621Z,1023.40
2023-02-19T04:38:59.811Z,1023.35
2023-02-19T04:41:26.561Z,1023.35
2023-02-19T04:43:53.560Z,1023.47
2023-02-19T04:46:20.445Z,1023.41
2023-02-19T04:48:47.350Z,1023.36
2023-02-19T04:51:14.258Z,1023.40
2023-02-19T04:53:43.585Z,1023.40
2023-02-19T04:56:12.617Z,1023.24
2023-02-19T04:58:40.163Z,1023.19
2023-02-19T05:01:07.574Z,1023.27
2023-02-19T05:03:34.367Z,1023.25
2023-02-19T05:06:02.857Z,1023.19
2023-02-19T05:08:29.724Z,1023.24
2023-02-19T05:10:59.220Z,1023.15
2023-02-19T05:13:26.512Z,1023.24
2023-02-19T05:15:58.107Z,1023.18
2023-02-19T05:18:25.053Z,1023.09
2023-02-19T05:20:52.326Z,1023.13
2023-02-19T05:23:20.123Z,1023.06
2023-02-19T05:25:47.849Z,1022.99
2023-02-19T05:28:16.292Z,1023.00
2023-02-19T05:30:43.270Z,1023.01
2023-02-19T05:33:10.116Z,1023.02
2023-02-19T05:35:41.226Z,1023.05
2023-02-19T05:38:08.246Z,1023.08
2023-02-19T05:40:35.371Z,1023.00
2023-02-19T05:43:02.217Z,1022.98
2023-02-19T05:45:30.594Z,1022.97
2023-02-19T05:47:57.323Z,1023.05
2023-02-19T05:50:24.301Z,1023.10
2023-02-19T05:52:51.098Z,1022.99
2023-02-19T05:55:18.139Z,1022.85
2023-02-19T05:57:46.629Z,1022.89
2023-02-19T06:00:15.242Z,1022.70
2023-02-19T06:02:43.612Z,1022.79
2023-02-19T06:05:11.152Z,1022.92
2023-02-19T06:07:38.256Z,1022.89
2023-02-19T06:10:05.877Z,1022.85
2023-02-19T06:12:32.912Z,1022.81
2023-02-19T06:14:59.764Z,1022.82
2023-02-19T06:17:26.550Z,1023.03
2023-02-19T06:19:54.686Z,1022.95
2023-02-19T06:22:21.492Z,1022.96
2023-02-19T06:24:48.461Z,1023.20
2023-02-19T06:27:16.211Z,1023.18
2023-02-19T06:29:42.987Z,1023.22
2023-02-19T06:32:09.854Z,1023.28
2023-02-19T06:34:36.842Z,1023.21
2023-02-19T06:37:05.111Z,1023.22
2023-02-19T06:39:31.884Z,1023.27
2023-02-19T06:41:58.642Z,1023.30
2023-02-19T06:44:25.756Z,1023.34
2023-02-19T06:46:55.661Z,1023.44
2023-02-19T06:49:23.118Z,1023.51
2023-02-19T06:51:49.872Z,1023.61
2023-02-19T06:54:17.986Z,1023.68
2023-02-19T06:56:47.006Z,1023.87
2023-02-19T06:59:15.973Z,1023.63
2023-02-19T07:01:43.072Z,1023.81
2023-02-19T07:04:09.999Z,1023.88
2023-02-19T07:06:36.967Z,1023.85
2023-02-19T07:09:05.308Z,1023.97
2023-02-19T07:11:35.027Z,1024.10
2023-02-19T07:14:03.355Z,1024.17
2023-02-19T07:16:30.417Z,1024.13
2023-02-19T07:18:57.875Z,1024.15
2023-02-19T07:21:26.860Z,1024.17
2023-02-19T07:23:53.905Z,1024.18
2023-02-19T07:26:22.036Z,1024.23
2023-02-19T07:28:51.751Z,1024.20
2023-02-19T07:31:20.890Z,1024.29
2023-02-19T07:33:48.062Z,1024.30
2023-02-19T07:36:16.163Z,1024.09
2023-02-19T07:38:43.000Z,1024.14
2023-02-19T07:41:10.316Z,1023.88
2023-02-19T07:43:38.797Z,1023.83
2023-02-19T07:46:08.920Z,1023.73
2023-02-19T07:48:36.496Z,1023.52
2023-02-19T07:51:05.100Z,1023.47
2023-02-19T07:53:33.351Z,1023.74
2023-02-19T07:56:01.261Z,1023.54
2023-02-19T07:58:28.408Z,1023.42
2023-02-19T08:00:55.330Z,1023.44
2023-02-19T08:03:23.600Z,1023.34
2023-02-19T08:05:50.332Z,1023.19
2023-02-19T08:08:17.510Z,1023.12
2023-02-19T08:10:44.279Z,1023.23
2023-02-19T08:13:13.039Z,1023.30
2023-02-19T08:15:39.845Z,1023.31
2023-02-19T08:18:07.446Z,1023.32
2023-02-19T08:20:35.704Z,1023.24
2023-02-19T08:23:02.510Z,1023.10
2023-02-19T08:25:29.409Z,1023.02
2023-02-19T08:27:56.329Z,1022.91
2023-02-19T08:30:24.185Z,1023.20
2023-02-19T08:32:51.066Z,1022.98
2023-02-19T08:35:18.010Z,1022.86
2023-02-19T08:37:46.161Z,1022.88
2023-02-19T08:40:13.045Z,1022.83
2023-02-19T08:42:41.043Z,1022.87
2023-02-19T08:45:09.070Z,1022.88
2023-02-19T08:47:36.032Z,1022.89
2023-02-19T08:50:02.838Z,1023.00
2023-02-19T08:52:29.568Z,1022.85
2023-02-19T08:54:57.798Z,1022.83
2023-02-19T08:57:25.228Z,1022.84
2023-02-19T08:59:52.076Z,1022.78
2023-02-19T09:02:18.973Z,1022.76
2023-02-19T09:04:45.762Z,1022.78
2023-02-19T09:07:12.746Z,1022.84
2023-02-19T09:09:40.400Z,1022.60
2023-02-19T09:12:11.034Z,1022.49
2023-02-19T09:14:38.085Z,1022.19
2023-02-19T09:17:07.139Z,1022.13
2023-02-19T09:19:34.122Z,1022.12
2023-02-19T09:22:01.253Z,1021.97
2023-02-19T09:24:28.088Z,1021.84
2023-02-19T09:26:55.225Z,1021.80
2023-02-19T09:29:25.653Z,1021.79
2023-02-19T09:31:56.649Z,1021.66
2023-02-19T09:34:23.819Z,1021.68
2023-02-19T09:36:50.977Z,1021.54
2023-02-19T09:39:18.104Z,1021.38
2023-02-19T09:41:47.820Z,1021.27
2023-02-19T09:44:27.713Z,1021.15
2023-02-19T09:46:55.226Z,1020.94
2023-02-19T09:49:28.128Z,1020.71
2023-02-19T09:51:59.099Z,1020.62
2023-02-19T09:54:30.328Z,1020.47
2023-02-19T09:57:00.081Z,1020.35
2023-02-19T09:59:34.265Z,1020.14
2023-02-19T10:02:04.206Z,1019.98
2023-02-19T10:04:30.997Z,1019.89
2023-02-19T10:06:59.149Z,1019.87
2023-02-19T10:09:27.002Z,1019.65
2023-02-19T10:11:55.434Z,1019.49
2023-02-19T10:14:26.056Z,1019.57
2023-02-19T10:16:54.430Z,1019.51
2023-02-19T10:19:21.180Z,1019.45
2023-02-19T10:21:48.086Z,1019.30
2023-02-19T10:24:24.136Z,1019.25
2023-02-19T10:26:51.045Z,1019.25
2023-02-19T10:29:17.813Z,1019.31
2023-02-19T10:31:44.702Z,1019.21
2023-02-19T10:34:20.464Z,1018.99
2023-02-19T10:36:49.411Z,1019.00
2023-02-19T10:39:39.580Z,1018.99
2023-02-19T10:42:13.329Z,1018.86
2023-02-19T10:44:44.504Z,1018.93
2023-02-19T10:47:18.041Z,1018.79
2023-02-19T10:49:48.095Z,1018.70
2023-02-19T10:52:17.901Z,1018.58
2023-02-19T10:54:45.369Z,1018.53
2023-02-19T10:57:28.778Z,1018.43
2023-02-19T10:59:57.991Z,1018.47
2023-02-19T11:02:25.665Z,1018.42
2023-02-19T11:05:19.150Z,1018.37
2023-02-19T11:07:48.447Z,1018.44
2023-02-19T11:10:26.826Z,1018.63
2023-02-19T11:12:56.482Z,1018.58
2023-02-19T11:15:27.271Z,1018.54
2023-02-19T11:18:00.006Z,1018.68
2023-02-19T11:20:29.142Z,1018.67
2023-02-19T11:22:59.612Z,1018.50
2023-02-19T11:25:27.394Z,1018.45
2023-02-19T11:27:57.098Z,1018.37
2023-02-19T11:30:39.753Z,1018.19
2023-02-19T11:33:26.535Z,1018.21
2023-02-19T11:36:00.627Z,1018.19
2023-02-19T11:38:27.885Z,1018.08
2023-02-19T11:41:04.991Z,1018.35
2023-02-19T11:43:46.889Z,1018.24
2023-02-19T11:46:20.649Z,1018.17
2023-02-19T11:48:53.000Z,1018.08
2023-02-19T11:51:41.551Z,1018.05
2023-02-19T11:54:18.824Z,1017.93
2023-02-19T11:56:54.196Z,1017.88
2023-02-19T11:59:31.200Z,1017.74
2023-02-19T12:02:23.856Z,1017.63
2023-02-19T12:05:30.574Z,1017.70
2023-02-19T12:08:23.746Z,1017.46
2023-02-19T12:11:03.909Z,1017.42
2023-02-19T12:13:41.104Z,1017.32
2023-02-19T12:16:19.870Z,1017.11
2023-02-19T12:19:10.549Z,1016.96
2023-02-19T12:21:57.225Z,1016.90
2023-02-19T12:24:53.816Z,1016.93
2023-02-19T12:27:29.185Z,1016.87
2023-02-19T12:30:17.808Z,1017.04
2023-02-19T12:32:58.346Z,1016.86
2023-02-19T12:35:38.668Z,1016.85
2023-02-19T12:38:16.969Z,1016.96
2023-02-19T12:40:58.380Z,1016.86
2023-02-19T12:43:25.362Z,1017.11
2023-02-19T12:45:56.533Z,1016.89
2023-02-19T12:48:29.662Z,1016.76
2023-02-19T12:51:03.131Z,1016.71
2023-02-19T12:53:40.055Z,1016.82
2023-02-19T12:56:13.761Z,1016.84
2023-02-19T12:58:45.006Z,1016.74
2023-02-19T13:01:18.210Z,1016.78
2023-02-19T13:03:50.139Z,1016.75
2023-02-19T13:06:26.539Z,1016.51
2023-02-19T13:09:06.261Z,1016.60
2023-02-19T13:11:39.337Z,1016.57
2023-02-19T13:14:16.128Z,1016.65
2023-02-19T13:16:48.762Z,1016.50
2023-02-19T13:19:15.682Z,1016.56
2023-02-19T13:21:47.341Z,1016.48
2023-02-19T13:24:21.060Z,1016.48
2023-02-19T13:27:00.678Z,1016.45
2023-02-19T13:29:52.131Z,1016.48
2023-02-19T13:32:40.059Z,1016.67
2023-02-19T13:35:23.916Z,1016.48
2023-02-19T13:37:51.710Z,1016.41
2023-02-19T13:40:25.438Z,1016.45
2023-02-19T13:42:55.720Z,1016.45
2023-02-19T13:45:27.316Z,1016.33
2023-02-19T13:48:02.321Z,1016.63
2023-02-19T13:50:30.768Z,1016.70
2023-02-19T13:52:58.168Z,1016.78
2023-02-19T13:55:52.649Z,1016.84
2023-02-19T13:58:56.465Z,1016.90
2023-02-19T14:01:57.244Z,1016.96
2023-02-19T14:04:26.326Z,1017.07
2023-02-19T14:07:26.551Z,1017.21
2023-02-19T14:09:54.169Z,1017.14
2023-02-19T14:12:22.746Z,1017.25
2023-02-19T14:14:51.671Z,1017.28
2023-02-19T14:17:28.776Z,1017.30
2023-02-19T14:19:58.012Z,1017.48
2023-02-19T14:23:01.676Z,1017.58
2023-02-19T14:25:35.668Z,1017.58
2023-02-19T14:28:06.295Z,1017.58
2023-02-19T14:30:43.397Z,1017.77
2023-02-19T14:33:11.453Z,1017.60
2023-02-19T14:35:40.900Z,1017.64
2023-02-19T14:38:16.985Z,1017.75
2023-02-19T14:40:46.734Z,1017.81
2023-02-19T14:43:16.157Z,1017.75
2023-02-19T14:45:47.318Z,1017.91
2023-02-19T14:48:19.584Z,1018.04
2023-02-19T14:50:50.572Z,1018.05
2023-02-19T14:53:19.555Z,1018.18
2023-02-19T14:55:47.666Z,1018.21
2023-02-19T14:58:22.201Z,1018.27
2023-02-19T15:00:50.371Z,1018.37
2023-02-19T15:03:27.413Z,1018.43
2023-02-19T15:05:57.172Z,1018.61
2023-02-19T15:08:31.128Z,1018.57
2023-02-19T15:10:58.459Z,1018.73
2023-02-19T15:13:28.139Z,1018.87
2023-02-19T15:15:57.010Z,1018.92
2023-02-19T15:18:25.168Z,1018.98
2023-02-19T15:20:58.812Z,1018.96
2023-02-19T15:23:26.208Z,1018.92
2023-02-19T15:25:53.546Z,1019.17
2023-02-19T15:28:28.225Z,1019.09
2023-02-19T15:31:13.163Z,1019.23
2023-02-19T15:33:40.356Z,1019.36
2023-02-19T15:36:09.345Z,1019.42
2023-02-19T15:38:36.761Z,1019.41
2023-02-19T15:41:03.784Z,1019.47
2023-02-19T15:43:37.472Z,1019.54
2023-02-19T15:46:11.641Z,1019.57
2023-02-19T15:48:40.733Z,1019.64
2023-02-19T15:51:14.298Z,1019.80
2023-02-19T15:53:45.474Z,1020.00
2023-02-19T15:56:18.017Z,1020.06
2023-02-19T15:58:50.722Z,1020.38
2023-02-19T16:01:22.330Z,1020.41
2023-02-19T16:03:49.271Z,1020.49
2023-02-19T16:06:17.846Z,1020.55
2023-02-19T16:08:46.466Z,1020.54
2023-02-19T16:11:28.238Z,1020.64
2023-02-19T16:14:17.271Z,1020.66
2023-02-19T16:16:47.798Z,1020.71
2023-02-19T16:19:20.836Z,1020.66
2023-02-19T16:21:48.049Z,1020.98
2023-02-19T16:24:22.045Z,1021.10
2023-02-19T16:26:48.821Z,1021.47
2023-02-19T16:29:20.975Z,1021.55
2023-02-19T16:31:51.576Z,1021.67
2023-02-19T16:34:28.392Z,1021.76
2023-02-19T16:36:55.176Z,1021.96
2023-02-19T16:39:23.995Z,1022.03
2023-02-19T16:42:18.383Z,1022.26
2023-02-19T16:44:46.614Z,1022.40
2023-02-19T16:47:32.470Z,1022.53
2023-02-19T16:50:01.665Z,1022.75
2023-02-19T16:52:29.022Z,1022.86
2023-02-19T16:54:56.124Z,1022.96
2023-02-19T16:57:23.028Z,1022.94
2023-02-19T16:59:49.801Z,1022.97
2023-02-19T17:02:24.551Z,1023.01
2023-02-19T17:04:52.828Z,1023.09
2023-02-19T17:07:19.630Z,1023.15
2023-02-19T17:09:46.481Z,1023.19
2023-02-19T17:12:15.578Z,1023.27
2023-02-19T17:14:42.395Z,1023.43
2023-02-19T17:17:09.210Z,1023.49
2023-02-19T17:19:35.952Z,1023.56
2023-02-19T17:22:04.077Z,1023.37
2023-02-19T17:24:30.884Z,1023.57
2023-02-19T17:26:57.639Z,1023.52
2023-02-19T17:29:24.607Z,1023.62
2023-02-19T17:31:51.603Z,1023.74
2023-02-19T17:34:18.408Z,1023.84
2023-02-19T17:36:47.834Z,1023.92
2023-02-19T17:39:16.181Z,1023.91
2023-02-19T17:41:43.102Z,1023.90
2023-02-19T17:44:10.564Z,1023.93
2023-02-19T17:46:38.229Z,1024.04
2023-02-19T17:49:05.518Z,1024.23
2023-02-19T17:51:32.265Z,1024.29
2023-02-19T17:53:59.010Z,1024.32
2023-02-19T17:56:27.891Z,1024.45
2023-02-19T17:58:55.835Z,1024.50
2023-02-19T18:01:23.153Z,1024.57
2023-02-19T18:03:50.587Z,1024.66
2023-02-19T18:06:17.394Z,1024.60
2023-02-19T18:08:49.364Z,1024.72
2023-02-19T18:11:16.209Z,1024.70
2023-02-19T18:13:44.516Z,1024.80
2023-02-19T18:16:11.766Z,1025.04
2023-02-19T18:18:38.495Z,1025.01
2023-02-19T18:21:08.506Z,1025.05
2023-02-19T18:23:35.327Z,1025.13
2023-02-19T18:26:02.132Z,1025.05
2023-02-19T18:28:28.876Z,1025.08
2023-02-19T18:30:58.194Z,1025.09
2023-02-19T18:33:26.331Z,1025.09
2023-02-19T18:35:53.054Z,1025.16
2023-02-19T18:38:20.388Z,1025.29
2023-02-19T18:40:47.127Z,1025.38
2023-02-19T18:43:13.950Z,1025.26
2023-02-19T18:45:40.822Z,1025.24
2023-02-19T18:48:08.990Z,1025.26
2023-02-19T18:50:35.741Z,1025.32
2023-02-19T18:53:02.469Z,1025.33
2023-02-19T18:55:29.240Z,1025.48
2023-02-19T18:57:55.980Z,1025.48
2023-02-19T19:00:24.593Z,1025.53
2023-02-19T19:02:51.640Z,1025.68
2023-02-19T19:05:21.433Z,1025.66
2023-02-19T19:07:48.632Z,1025.65
2023-02-19T19:10:15.470Z,1025.80
2023-02-19T19:12:42.228Z,1025.86
2023-02-19T19:15:09.637Z,1025.67
2023-02-19T19:17:36.512Z,1025.86
2023-02-19T19:20:03.691Z,1025.95
2023-02-19T19:22:31.820Z,1025.86
2023-02-19T19:24:58.656Z,1025.94
2023-02-19T19:27:25.453Z,1025.99
2023-02-19T19:29:52.196Z,1026.00
2023-02-19T19:32:18.942Z,1026.12
2023-02-19T19:34:45.755Z,1025.95
2023-02-19T19:37:12.548Z,1025.94
2023-02-19T19:39:42.592Z,1025.95
2023-02-19T19:42:09.409Z,1026.14
2023-02-19T19:44:40.298Z,1026.14
2023-02-19T19:47:09.300Z,1026.14
2023-02-19T19:50:05.359Z,1026.25
2023-02-19T19:52:49.287Z,1026.42
2023-02-19T19:55:45.540Z,1026.39
2023-02-19T19:58:43.280Z,1026.41
2023-02-19T20:01:38.226Z,1026.58
2023-02-19T20:04:30.314Z,1026.62
2023-02-19T20:09:58.629Z,1026.58
2023-02-19T20:13:11.999Z,1026.60
2023-02-19T20:15:48.694Z,1026.70
2023-02-19T20:18:15.831Z,1026.80
2023-02-19T20:20:42.641Z,1026.68
2023-02-19T20:23:09.463Z,1026.80
2023-02-19T20:25:36.254Z,1026.80
2023-02-19T20:28:04.824Z,1027.06
2023-02-19T20:30:31.763Z,1027.06
2023-02-19T20:32:58.599Z,1026.92
2023-02-19T20:35:26.472Z,1026.99
2023-02-19T20:37:53.396Z,1026.94
2023-02-19T20:40:20.287Z,1027.00
2023-02-19T20:42:47.092Z,1027.04
2023-02-19T20:45:15.934Z,1027.06
2023-02-19T20:47:42.872Z,1027.15
2023-02-19T20:50:10.621Z,1027.22
2023-02-19T20:52:37.649Z,1027.09
2023-02-19T20:55:05.030Z,1027.10
2023-02-19T20:57:31.823Z,1027.10
2023-02-19T20:59:58.661Z,1027.03
2023-02-19T21:02:27.673Z,1027.02
2023-02-19T21:04:54.700Z,1027.02
2023-02-19T21:07:21.446Z,1027.17
2023-02-19T21:09:48.277Z,1027.24
2023-02-19T21:12:15.170Z,1027.15
2023-02-19T21:14:42.287Z,1027.03
2023-02-19T21:17:09.036Z,1027.13
2023-02-19T21:19:37.209Z,1027.15
2023-02-19T21:22:04.135Z,1027.09
2023-02-19T21:24:31.125Z,1027.10
2023-02-19T21:26:58.786Z,1027.22
2023-02-19T21:29:26.106Z,1027.28
2023-02-19T21:31:54.771Z,1027.23
2023-02-19T21:34:23.863Z,1027.20
2023-02-19T21:36:52.501Z,1027.20
2023-02-19T21:39:21.358Z,1027.24
2023-02-19T21:41:49.067Z,1027.22
2023-02-19T21:44:16.677Z,1027.16
2023-02-19T21:46:43.472Z,1027.17
2023-02-19T21:49:11.318Z,1027.15
2023-02-19T21:51:40.140Z,1027.28
2023-02-19T21:54:13.376Z,1027.26
2023-02-19T21:56:40.154Z,1027.36
2023-02-19T21:59:07.199Z,1027.43
2023-02-19T22:01:36.897Z,1027.44
2023-02-19T22:04:04.289Z,1027.55
2023-02-19T22:06:31.661Z,1027.51
2023-02-19T22:08:58.986Z,1027.51
2023-02-19T22:11:27.555Z,1027.58
2023-02-19T22:13:54.498Z,1027.49
2023-02-19T22:16:21.409Z,1027.50
2023-02-19T22:18:48.958Z,1027.47
2023-02-19T22:21:16.523Z,1027.49
2023-02-19T22:23:44.243Z,1027.59
2023-02-19T22:26:17.752Z,1027.64
2023-02-19T22:28:45.945Z,1027.70
2023-02-19T22:31:12.866Z,1027.57
2023-02-19T22:33:39.835Z,1027.53
2023-02-19T22:36:13.803Z,1027.53
2023-02-19T22:38:40.702Z,1027.55
2023-02-19T22:41:07.604Z,1027.51
2023-02-19T22:43:34.336Z,1027.52
2023-02-19T22:46:03.171Z,1027.57
2023-02-19T22:48:30.543Z,1027.58
2023-02-19T22:50:57.511Z,1027.60
2023-02-19T22:53:24.452Z,1027.54
2023-02-19T22:55:51.349Z,1027.59
2023-02-19T22:58:18.108Z,1027.63
2023-02-19T23:00:44.888Z,1027.70
2023-02-19T23:03:14.132Z,1027.74
2023-02-19T23:05:41.020Z,1027.84
2023-02-19T23:08:07.893Z,1028.03
2023-02-19T23:10:34.650Z,1028.29
2023-02-19T23:13:01.364Z,1028.34
2023-02-19T23:15:28.130Z,1028.35
2023-02-19T23:17:54.922Z,1028.31
2023-02-19T23:20:23.124Z,1028.13
2023-02-19T23:22:49.896Z,1028.20
2023-02-19T23:25:16.852Z,1028.17
2023-02-19T23:27:47.368Z,1028.28
2023-02-19T23:30:15.809Z,1028.40
2023-02-19T23:32:42.608Z,1028.45
2023-02-19T23:35:09.365Z,1028.29
2023-02-19T23:37:37.579Z,1028.26
2023-02-19T23:40:05.150Z,1028.20
2023-02-19T23:42:31.973Z,1028.44
2023-02-19T23:44:58.845Z,1028.35
2023-02-19T23:47:25.615Z,1028.36
2023-02-19T23:49:52.447Z,1028.41
2023-02-19T23:52:19.208Z,1028.40
2023-02-19T23:54:47.324Z,1028.41
2023-02-19T23:57:14.069Z,1028.41
2023-02-19T23:59:41.143Z,1028.41
